createdAt,value
2018-08-22T00:03:49.600Z,25.8
2018-08-22T00:08:47.716Z,25.7
2018-08-22T00:13:45.756Z,25.7
2018-08-22T00:18:43.719Z,25.6
2018-08-22T00:23:41.650Z,25.6
2018-08-22T00:28:39.495Z,25.5
2018-08-22T00:33:37.484Z,25.3
2018-08-22T00:38:35.540Z,25.5
2018-08-22T00:43:33.655Z,25.4
2018-08-22T00:48:31.632Z,25.4
2018-08-22T00:53:29.647Z,25.3
2018-08-22T00:58:27.647Z,25.3
2018-08-22T01:03:25.638Z,25.2
2018-08-22T01:08:23.698Z,25.2
2018-08-22T01:13:21.245Z,25.1
2018-08-22T01:18:19.313Z,25.1
2018-08-22T01:23:17.483Z,25
2018-08-22T01:28:15.573Z,25
2018-08-22T01:33:13.556Z,25
2018-08-22T01:38:11.564Z,24.9
2018-08-22T01:43:09.537Z,24.4
2018-08-22T01:48:07.695Z,24.8
2018-08-22T01:53:05.962Z,24.8
2018-08-22T01:58:03.447Z,24.7
2018-08-22T02:03:01.448Z,24.7
2018-08-22T02:07:59.464Z,24.6
2018-08-22T02:12:57.403Z,24.6
2018-08-22T02:17:55.406Z,24.5
2018-08-22T02:22:53.557Z,24.5
2018-08-22T02:27:51.620Z,24.5
2018-08-22T02:32:49.706Z,24.4
2018-08-22T02:37:47.837Z,24.4
2018-08-22T02:42:45.840Z,24.2
2018-08-22T02:47:43.935Z,24.1
2018-08-22T02:52:41.960Z,24.2
2018-08-22T02:57:40.057Z,24.2
2018-08-22T03:02:37.621Z,24.1
2018-08-22T03:07:35.567Z,24.1
2018-08-22T03:12:33.712Z,24.1
2018-08-22T03:17:31.340Z,24
2018-08-22T03:22:29.072Z,24
2018-08-22T03:27:26.894Z,23.9
2018-08-22T03:32:25.026Z,23.9
2018-08-22T03:37:23.070Z,23.9
2018-08-22T03:42:21.015Z,23.8
2018-08-22T03:47:19.053Z,23.8
2018-08-22T03:52:17.125Z,23.7
2018-08-22T03:57:15.161Z,23.7
2018-08-22T04:02:13.237Z,23.6
2018-08-22T04:07:11.363Z,23.6
2018-08-22T04:12:09.441Z,23.6
2018-08-22T04:17:06.996Z,23.6
2018-08-22T04:22:05.043Z,23.6
2018-08-22T04:27:03.136Z,23.6
2018-08-22T04:32:01.209Z,23.6
2018-08-22T04:36:59.284Z,23.5
2018-08-22T04:41:57.274Z,23.5
2018-08-22T04:46:55.434Z,23.5
2018-08-22T04:51:53.515Z,23.5
2018-08-22T04:56:51.685Z,23.5
2018-08-22T05:01:49.166Z,23.5
2018-08-22T05:06:46.743Z,23.5
2018-08-22T05:11:44.886Z,23.4
2018-08-22T05:16:43.063Z,23.4
2018-08-22T05:21:41.208Z,23.2
2018-08-22T05:26:39.231Z,23.4
2018-08-22T05:31:37.140Z,23.3
2018-08-22T05:36:35.137Z,23.1
2018-08-22T05:41:33.189Z,23.3
2018-08-22T05:46:31.549Z,23.3
2018-08-22T05:51:29.649Z,23.3
2018-08-22T05:56:27.735Z,23.3
2018-08-22T06:01:25.669Z,23.3
2018-08-22T06:06:23.447Z,23.3
2018-08-22T06:11:21.556Z,23.3
2018-08-22T06:16:19.487Z,23.3
2018-08-22T06:21:17.575Z,23.3
2018-08-22T06:26:15.437Z,23.3
2018-08-22T06:31:13.692Z,23.3
2018-08-22T06:36:11.852Z,23.3
2018-08-22T06:41:10.083Z,23.4
2018-08-22T06:46:07.673Z,23.4
2018-08-22T06:51:05.909Z,23.4
2018-08-22T06:56:03.955Z,23.4
2018-08-22T07:01:01.981Z,23.5
2018-08-22T07:05:59.960Z,23.5
2018-08-22T07:10:58.245Z,23.4
2018-08-22T07:15:56.169Z,23.6
2018-08-22T07:20:54.483Z,23.6
2018-08-22T07:25:52.842Z,23.6
2018-08-22T07:30:50.897Z,23.7
2018-08-22T07:35:49.584Z,23.7
2018-08-22T07:40:48.259Z,23.8
2018-08-22T07:45:47.906Z,23.8
2018-08-22T07:50:46.750Z,23.9
2018-08-22T07:55:45.030Z,24
2018-08-22T08:00:43.268Z,24
2018-08-22T08:05:41.403Z,24.1
2018-08-22T08:10:39.513Z,24.1
2018-08-22T08:15:37.859Z,24.2
2018-08-22T08:20:36.132Z,24.3
2018-08-22T08:25:34.272Z,24.3
2018-08-22T08:30:32.930Z,24.4
2018-08-22T08:35:31.643Z,24.5
2018-08-22T08:40:29.941Z,24.4
2018-08-22T08:45:27.980Z,24.6
2018-08-22T08:50:26.187Z,24.6
2018-08-22T08:55:23.666Z,24.7
2018-08-22T09:00:22.013Z,24.8
2018-08-22T09:05:20.295Z,24.8
2018-08-22T09:10:18.849Z,24.9
2018-08-22T09:15:17.431Z,24.9
2018-08-22T09:20:15.891Z,25
2018-08-22T09:25:14.011Z,25
2018-08-22T09:30:12.180Z,25.1
2018-08-22T09:35:10.415Z,25.1
2018-08-22T09:40:08.294Z,25.2
2018-08-22T09:45:06.470Z,25.3
2018-08-22T09:50:04.893Z,25.3
2018-08-22T09:55:03.148Z,25.3
2018-08-22T10:00:01.468Z,25.4
2018-08-22T10:04:59.895Z,25.5
2018-08-22T11:44:34.516Z,26.5
2018-08-22T11:49:32.691Z,26.6
2018-08-22T11:54:30.893Z,26.7
2018-08-22T11:59:29.017Z,26.7
2018-08-22T12:04:27.181Z,26.8
2018-08-22T12:09:25.386Z,26.9
2018-08-22T12:14:23.490Z,26.9
2018-08-22T12:19:21.687Z,27
2018-08-22T12:24:20.014Z,27.1
2018-08-22T12:29:18.242Z,27.1
2018-08-22T12:34:16.299Z,27.2
2018-08-22T12:39:14.554Z,26.8
2018-08-22T12:44:12.722Z,27.3
2018-08-22T12:49:10.913Z,27.4
2018-08-22T12:54:08.977Z,27.5
2018-08-22T12:59:06.748Z,27.1
2018-08-22T13:04:05.145Z,27.6
2018-08-22T13:09:03.367Z,27.7
2018-08-22T13:14:01.093Z,27.7
2018-08-22T13:18:59.392Z,27.8
2018-08-22T13:23:57.608Z,27.9
2018-08-22T13:28:55.864Z,27.9
2018-08-22T13:33:53.961Z,28
2018-08-22T13:38:52.737Z,27.9
2018-08-22T13:43:51.737Z,28.1
2018-08-22T13:48:50.009Z,27.5
2018-08-22T13:53:48.067Z,28.3
2018-08-22T13:58:46.529Z,28.3
2018-08-22T14:03:44.700Z,28.4
2018-08-22T14:08:42.988Z,28.3
2018-08-22T14:13:41.141Z,28.5
2018-08-22T14:18:39.498Z,28.4
2018-08-22T14:23:37.751Z,28.6
2018-08-22T14:28:35.881Z,28.7
2018-08-22T14:33:33.823Z,28.8
2018-08-22T14:38:32.312Z,28.8
2018-08-22T14:43:30.658Z,28.9
2018-08-22T14:48:28.934Z,28.9
2018-08-22T14:53:27.218Z,29
2018-08-22T14:58:25.051Z,29
2018-08-22T15:03:23.627Z,29.1
2018-08-22T15:08:22.494Z,29.1
2018-08-22T15:13:20.864Z,29.2
2018-08-22T15:18:18.756Z,29.2
2018-08-22T15:23:16.850Z,29.3
2018-08-22T15:28:15.003Z,29.3
2018-08-22T15:33:13.160Z,29.3
2018-08-22T15:38:11.296Z,29.4
2018-08-22T15:43:09.504Z,29.4
2018-08-22T15:48:07.763Z,29.4
2018-08-22T15:53:05.977Z,29.5
2018-08-22T15:58:04.246Z,29.1
2018-08-22T16:03:02.369Z,29.5
2018-08-22T16:08:00.684Z,29.5
2018-08-22T16:12:58.915Z,29.1
2018-08-22T16:17:56.660Z,29.1
2018-08-22T16:22:54.706Z,29.6
2018-08-22T16:27:52.706Z,29.6
2018-08-22T16:32:50.531Z,29.6
2018-08-22T16:37:48.462Z,29.6
2018-08-22T16:42:46.554Z,29.2
2018-08-22T16:47:44.682Z,29.6
2018-08-22T16:52:42.884Z,29.6
2018-08-22T16:57:40.869Z,29.6
2018-08-22T17:02:39.010Z,29.2
2018-08-22T17:07:37.151Z,29.6
2018-08-22T17:12:35.504Z,29.6
2018-08-22T17:17:33.596Z,29.6
2018-08-22T17:22:31.823Z,29.6
2018-08-22T17:27:30.057Z,29.5
2018-08-22T17:32:28.312Z,29.5
2018-08-22T17:37:26.414Z,29.5
2018-08-22T17:42:24.498Z,29.5
2018-08-22T17:47:22.564Z,29.5
2018-08-22T17:52:20.716Z,29.4
2018-08-22T17:57:18.807Z,29.4
2018-08-22T18:02:16.600Z,29.4
2018-08-22T18:07:14.186Z,29.3
2018-08-22T18:12:12.248Z,29.3
2018-08-22T18:17:10.321Z,29.3
2018-08-22T18:22:08.319Z,29.2
2018-08-22T18:27:06.591Z,29.2
2018-08-22T18:32:04.970Z,29.1
2018-08-22T18:37:02.761Z,29.1
2018-08-22T18:42:00.948Z,29.1
2018-08-22T18:46:59.172Z,29
2018-08-22T18:51:57.340Z,29
2018-08-22T18:56:55.416Z,29
2018-08-22T19:01:53.474Z,28.9
2018-08-22T19:06:51.629Z,28.9
2018-08-22T19:11:49.658Z,28.8
2018-08-22T19:16:47.450Z,28.8
2018-08-22T19:21:45.553Z,28.7
2018-08-22T19:26:43.670Z,28.7
2018-08-22T19:31:41.814Z,28.6
2018-08-22T19:36:40.030Z,28.6
2018-08-22T19:41:38.149Z,28.5
2018-08-22T19:46:36.198Z,28.5
2018-08-22T19:51:34.329Z,28.4
2018-08-22T19:56:32.526Z,28.4
2018-08-22T20:01:30.902Z,28.3
2018-08-22T20:06:29.113Z,28.3
2018-08-22T20:11:27.147Z,28.2
2018-08-22T20:16:25.291Z,28
2018-08-22T20:21:23.470Z,28.1
2018-08-22T20:26:21.373Z,28.1
2018-08-22T20:31:19.518Z,28
2018-08-22T20:36:17.199Z,27.6
2018-08-22T20:41:15.200Z,27.9
2018-08-22T20:46:13.289Z,27.9
2018-08-22T20:51:11.471Z,27.8
2018-08-22T20:56:09.426Z,27.8
2018-08-22T21:01:07.614Z,27.7
2018-08-22T21:06:05.915Z,27.7
2018-08-22T21:11:04.152Z,27.6
2018-08-22T21:16:02.039Z,27.6
2018-08-22T21:21:00.377Z,27.5
2018-08-22T21:25:58.748Z,27.5
2018-08-22T21:30:56.853Z,27.4
2018-08-22T21:35:54.879Z,27.4
2018-08-22T21:40:52.908Z,27.4
2018-08-22T21:45:51.172Z,27.3
2018-08-22T21:50:49.205Z,27.2
2018-08-22T21:55:47.313Z,27.2
2018-08-22T22:00:45.602Z,26.7
2018-08-22T22:05:43.788Z,27.1
2018-08-22T22:10:41.936Z,27
2018-08-22T22:15:39.615Z,27
2018-08-22T22:20:37.566Z,27
2018-08-22T22:25:35.565Z,26.9
2018-08-22T22:30:33.725Z,26.9
2018-08-22T22:35:31.786Z,26.8
2018-08-22T22:40:29.731Z,26.8
2018-08-22T22:45:27.647Z,26.7
2018-08-22T22:50:25.651Z,26.7
2018-08-22T22:55:23.611Z,26.6
2018-08-22T23:00:21.818Z,26.6
2018-08-22T23:05:19.995Z,26.5
2018-08-22T23:10:18.005Z,26.5
2018-08-22T23:15:15.648Z,26.4
2018-08-22T23:20:13.497Z,26.4
2018-08-22T23:25:11.581Z,26.4
2018-08-22T23:30:09.632Z,26.2
2018-08-22T23:35:07.677Z,26.2
2018-08-22T23:40:05.954Z,26.2
2018-08-22T23:45:03.967Z,26.1
2018-08-22T23:50:02.119Z,26.1
2018-08-22T23:55:00.136Z,26
2018-08-22T23:59:58.047Z,26
